Time;durP1;ratioP1;P1;durP2;ratioP2;P2;SDS_P1;SDS_P2;PMS_P1;PMS_P2;Temp;Humidity;BMP_temperature;BMP_pressure;BME280_temperature;BME280_humidity;BME280_pressure;Samples;Min_cycle;Max_cycle;Signal;HPM_P1;HPM_P2
2023/09/18 00:08:12;;;;;;;;;;;;;;;18.69;93.51;100539.96;673746;1260;125567;-80
2023/09/18 00:23:15;;;;;;;;;;;;;;;18.61;93.45;100536.58;673787;1271;125614;-79
2023/09/18 00:38:19;;;;;;;;;;;;;;;18.52;94.72;100534.52;673986;1267;126515;-79
2023/09/18 00:53:25;;;;;;;;;;;;;;;18.47;95.02;100523.55;673956;1258;126516;-80
2023/09/18 01:08:30;;;;;;;;;;;;;;;18.45;94.94;100522.42;675646;1260;125724;-79
2023/09/18 01:23:34;;;;;;;;;;;;;;;18.40;95.41;100518.50;673962;1272;125683;-80
2023/09/18 01:38:37;;;;;;;;;;;;;;;18.30;95.94;100513.02;675019;1260;126429;-79
2023/09/18 01:53:40;;;;;;;;;;;;;;;18.28;95.85;100511.45;673973;1260;125888;-80
2023/09/18 02:08:44;;;;;;;;;;;;;;;18.27;96.16;100502.04;673566;1265;127073;-79
2023/09/18 02:23:52;;;;;;;;;;;;;;;18.10;95.82;100494.91;673790;1262;126146;-79
2023/09/18 02:38:55;;;;;;;;;;;;;;;17.99;96.45;100498.70;674058;1271;125866;-79
2023/09/18 02:53:58;;;;;;;;;;;;;;;17.94;95.84;100497.70;672771;1270;125509;-79
2023/09/18 03:09:02;;;;;;;;;;;;;;;17.83;95.96;100491.98;679877;1260;126107;-79
2023/09/18 03:24:06;;;;;;;;;;;;;;;17.74;95.68;100491.63;674105;1263;125782;-79
2023/09/18 03:39:09;;;;;;;;;;;;;;;17.66;95.61;100486.05;672033;1263;126747;-77
2023/09/18 03:54:12;;;;;;;;;;;;;;;17.38;97.08;100474.20;675771;1273;125888;-78
2023/09/18 04:09:16;;;;;;;;;;;;;;;17.28;97.38;100463.13;674359;1262;126238;-79
2023/09/18 04:24:19;;;;;;;;;;;;;;;17.19;97.08;100451.65;675661;1264;126303;-79
2023/09/18 04:39:23;;;;;;;;;;;;;;;17.07;97.64;100432.44;675599;1270;126454;-78
2023/09/18 04:54:26;;;;;;;;;;;;;;;17.09;99.28;100427.45;676301;1259;127229;-80
2023/09/18 05:09:30;;;;;;;;;;;;;;;17.25;99.46;100414.50;677160;1263;126031;-78
2023/09/18 05:24:34;;;;;;;;;;;;;;;17.88;100.00;100400.13;675414;1263;126942;-78
2023/09/18 05:39:38;;;;;;;;;;;;;;;18.74;100.00;100401.73;676035;1261;127793;-78
2023/09/18 05:54:41;;;;;;;;;;;;;;;19.68;99.41;100392.04;671572;1266;125683;-78
2023/09/18 06:09:44;;;;;;;;;;;;;;;20.44;98.34;100389.71;672075;1257;378479;-78
2023/09/18 06:24:47;;;;;;;;;;;;;;;24.94;91.15;100401.13;676671;1260;125668;-79
2023/09/18 06:39:50;;;;;;;;;;;;;;;28.70;77.51;100385.34;673966;1264;124792;-80
2023/09/18 06:54:54;;;;;;;;;;;;;;;28.81;69.85;100377.67;674082;1257;126534;-80
2023/09/18 07:09:57;;;;;;;;;;;;;;;29.73;67.73;100370.36;675774;1260;125926;-81
2023/09/18 07:25:03;;;;;;;;;;;;;;;31.17;64.99;100369.20;675710;1258;125444;-80
2023/09/18 07:40:06;;;;;;;;;;;;;;;31.07;62.92;100355.86;676830;1257;125610;-81
2023/09/18 07:55:09;;;;;;;;;;;;;;;31.59;62.08;100340.19;675000;1264;125215;-79
2023/09/18 08:10:13;;;;;;;;;;;;;;;31.55;59.76;100338.27;675829;1262;126106;-80
2023/09/18 08:25:16;;;;;;;;;;;;;;;31.39;58.59;100329.41;677917;1261;125479;-80
2023/09/18 08:40:19;;;;;;;;;;;;;;;31.18;57.88;100324.14;678436;1260;125030;-79
2023/09/18 08:55:23;;;;;;;;;;;;;;;31.58;57.23;100309.61;680359;1260;126518;-80
2023/09/18 09:10:26;;;;;;;;;;;;;;;31.62;57.15;100297.69;678082;1262;125406;-79
2023/09/18 09:25:34;;;;;;;;;;;;;;;31.51;57.53;100280.33;675356;1256;126156;-79
2023/09/18 09:40:40;;;;;;;;;;;;;;;32.39;56.36;100257.05;675252;1260;125048;-80
2023/09/18 09:55:44;;;;;;;;;;;;;;;31.68;55.49;100226.67;674903;1260;125224;-80
2023/09/18 10:10:51;;;;;;;;;;;;;;;31.86;54.78;100213.31;677989;1273;124796;-80
2023/09/18 10:25:57;;;;;;;;;;;;;;;32.29;54.61;100195.60;675092;1261;126487;-80
2023/09/18 10:41:01;;;;;;;;;;;;;;;31.55;55.03;100180.83;675103;1259;124924;-80
2023/09/18 10:56:04;;;;;;;;;;;;;;;30.91;56.17;100171.02;673971;1260;125419;-81
2023/09/18 11:11:14;;;;;;;;;;;;;;;30.87;55.69;100162.13;673934;1263;124760;-79
2023/09/18 11:26:20;;;;;;;;;;;;;;;30.96;55.98;100141.63;673700;1260;125155;-80
2023/09/18 11:41:27;;;;;;;;;;;;;;;31.49;54.99;100120.79;677133;1260;124972;-80
2023/09/18 11:56:32;;;;;;;;;;;;;;;31.94;54.02;100110.02;675352;1258;125991;-79
2023/09/18 12:11:37;;;;;;;;;;;;;;;31.56;53.66;100091.56;674938;1260;124835;-81
2023/09/18 12:26:41;;;;;;;;;;;;;;;31.28;53.28;100079.65;677931;1256;126079;-80
2023/09/18 12:41:44;;;;;;;;;;;;;;;31.60;53.25;100064.58;676553;1260;124650;-78
2023/09/18 12:56:47;;;;;;;;;;;;;;;31.08;53.31;100048.98;677096;1260;124761;-79
2023/09/18 13:11:52;;;;;;;;;;;;;;;31.31;53.33;100025.10;676968;1260;126401;-79
2023/09/18 13:26:56;;;;;;;;;;;;;;;30.45;54.85;100004.40;674984;1260;126337;-79
2023/09/18 13:41:59;;;;;;;;;;;;;;;30.68;53.78;99985.27;675593;1260;126857;-78
2023/09/18 13:57:05;;;;;;;;;;;;;;;31.07;53.80;99967.80;675243;1261;125399;-78
2023/09/18 14:12:08;;;;;;;;;;;;;;;30.81;54.80;99953.30;675646;1259;125077;-80
2023/09/18 14:27:12;;;;;;;;;;;;;;;30.82;55.52;99931.36;676227;1263;125980;-78
2023/09/18 14:42:15;;;;;;;;;;;;;;;30.66;55.92;99914.06;674453;1263;124369;-80
2023/09/18 14:57:19;;;;;;;;;;;;;;;30.65;55.67;99900.76;681222;1263;125343;-80
2023/09/18 15:12:22;;;;;;;;;;;;;;;30.61;54.56;99892.97;679112;1260;125382;-80
2023/09/18 15:27:26;;;;;;;;;;;;;;;30.62;53.11;99882.69;677491;1262;125522;-79
2023/09/18 15:42:29;;;;;;;;;;;;;;;30.37;53.94;99870.84;679047;1260;125302;-82
2023/09/18 15:57:33;;;;;;;;;;;;;;;29.66;55.57;99862.35;675941;1260;125236;-79
2023/09/18 16:12:37;;;;;;;;;;;;;;;29.02;57.34;99850.90;675767;1260;124869;-78
2023/09/18 16:27:42;;;;;;;;;;;;;;;28.62;58.56;99833.61;671790;1260;125363;-79
2023/09/18 16:42:46;;;;;;;;;;;;;;;27.97;59.24;99827.95;671925;1263;125072;-79
2023/09/18 16:57:51;;;;;;;;;;;;;;;27.47;60.10;99806.25;673007;1263;126236;-77
2023/09/18 17:12:56;;;;;;;;;;;;;;;27.03;60.65;99787.77;673261;1261;125651;-78
2023/09/18 17:28:02;;;;;;;;;;;;;;;26.63;61.33;99783.81;676442;1263;125276;-78
2023/09/18 17:43:07;;;;;;;;;;;;;;;26.16;62.74;99780.58;672867;1257;124962;-78
2023/09/18 17:58:10;;;;;;;;;;;;;;;25.75;63.96;99789.21;672332;1261;124907;-78
2023/09/18 18:13:15;;;;;;;;;;;;;;;25.36;65.11;99791.02;675091;1262;206613;-78
2023/09/18 18:28:20;;;;;;;;;;;;;;;25.16;65.90;99785.48;675182;1257;124938;-78
2023/09/18 18:43:24;;;;;;;;;;;;;;;24.87;67.04;99777.92;674058;1276;124557;-76
2023/09/18 18:58:28;;;;;;;;;;;;;;;24.61;67.56;99770.06;673589;1260;125413;-77
2023/09/18 19:13:32;;;;;;;;;;;;;;;24.35;67.65;99761.48;672901;1269;125439;-79
2023/09/18 19:28:35;;;;;;;;;;;;;;;24.02;69.18;99752.31;674893;1260;125068;-79
2023/09/18 19:43:39;;;;;;;;;;;;;;;23.92;69.60;99734.33;677406;1263;125197;-79
2023/09/18 19:58:42;;;;;;;;;;;;;;;23.84;69.71;99721.73;677217;1269;125387;-79
2023/09/18 20:13:46;;;;;;;;;;;;;;;23.71;69.85;99708.63;676354;1260;126914;-79
2023/09/18 20:28:49;;;;;;;;;;;;;;;23.64;70.06;99695.66;675869;1259;126182;-79
2023/09/18 20:43:52;;;;;;;;;;;;;;;23.60;70.55;99682.02;675926;1270;127208;-80
2023/09/18 20:58:56;;;;;;;;;;;;;;;23.53;71.33;99681.34;676180;1259;128919;-79
2023/09/18 21:13:59;;;;;;;;;;;;;;;23.51;71.49;99676.38;677306;1261;126743;-79
2023/09/18 21:29:02;;;;;;;;;;;;;;;23.54;71.55;99665.52;675442;1263;126390;-79
2023/09/18 21:44:05;;;;;;;;;;;;;;;24.02;73.18;99655.77;675690;1257;127532;-79
2023/09/18 21:59:08;;;;;;;;;;;;;;;24.52;72.64;99641.84;675165;1260;125637;-79
2023/09/18 22:14:12;;;;;;;;;;;;;;;24.56;73.20;99630.66;675553;1263;127124;-79
2023/09/18 22:29:14;;;;;;;;;;;;;;;24.41;74.57;99613.75;675762;1260;126200;-79
2023/09/18 22:44:37;;;;;;;;;;;;;;;24.27;76.92;99595.52;676268;1264;125597;-78
2023/09/18 22:59:41;;;;;;;;;;;;;;;24.07;79.79;99585.73;676890;1257;125760;-79
2023/09/18 23:14:46;;;;;;;;;;;;;;;23.82;81.88;99569.81;674531;1258;126347;-79
2023/09/18 23:29:49;;;;;;;;;;;;;;;23.47;83.55;99547.30;674826;1257;125223;-79
2023/09/18 23:44:52;;;;;;;;;;;;;;;23.34;85.02;99543.09;675127;1264;126754;-79
2023/09/18 23:59:55;;;;;;;;;;;;;;;23.19;86.46;99531.38;675209;1260;126133;-79
